Search for airport 
image banner adimage banner ad
image banner ad

VOCB - Coimbatore

Located in Coimbatore, India

ICAO - VOCB, IATA - CJB

Data provided by Airmate  

General information

Coordinates: N11°1'37" E77°2'30"
Elevation is 1328 feet MSL.
 
View others Airports in Tamil Nadu

Operational data

Open for public use
Current time UTC:
Current local time:
Weather
METAR: VOCB 280200Z VRB02KT 2000 BR SCT012 24/23 Q1014 NOSIG
TAF: TAF VOCB 272300Z 2800/2906 VRB02KT 2000 BR SCT015 BECMG 2805/2806 05010KT 6000 BECMG 2815/2816 VRB02KT 4000 BR BECMG 2821/2822 2000 BR BECMG 2905/2906 05010KT 6000
View NOTAMs / SUP AIP / TFR affecting this airport [VIEW]
Communications frequencies: [VIEW]

Runways:

RWY identifierQFULength (ft)Width (ft)SurfaceLDA (ft)
0546°8480150ASP
23226°9810148

Airport contact information

Address: Coimbatore India

Satellite view of VOCB